• Join FlightAware (Why Join?)
  • Login
  • US Flag 
12:53PM EDT


 

Airport Tracker/Info


-or-


 

Live Flight TrackerFlight Track Log ✈ CSN6873 ✈ 22-Jan-2014 ✈ ZWWW / URC - ZWKC / KCA

Flight Track Log - Related Links

Times and Time Zones

All times are in EST time to prevent confusion due to time zone crossing. See the CSN6873 flight status page for this flight to view local times or setup timezone preferences in your user account.

Time Position Orientation Groundspeed Altitude Reporting Facility
EST Latitude Longitude Course Direction KTS MPH feet Rate Location/Type
07:17AM 43.5315 86.6542 238° Southwest  Level Estimated
07:18AM 43.4841 86.5524 237° Southwest  Level Estimated
07:19AM 43.4366 86.4508 237° Southwest  Level Estimated
07:20AM 43.3891 86.3493 237° Southwest  Level Estimated
07:21AM 43.3414 86.2480 237° Southwest  Level Estimated
07:22AM 43.2937 86.1469 237° Southwest  Level Estimated
07:23AM 43.2459 86.0459 237° Southwest  Level Estimated
07:24AM 43.1980 85.9451 237° Southwest  Level Estimated
07:25AM 43.1500 85.8444 237° Southwest  Level Estimated
07:26AM 43.1020 85.7439 237° Southwest  Level Estimated
07:27AM 43.0538 85.6435 237° Southwest  Level Estimated
07:28AM 43.0055 85.5434 237° Southwest  Level Estimated
07:29AM 42.9572 85.4433 237° Southwest  Level Estimated
07:30AM 42.9088 85.3434 237° Southwest  Level Estimated
07:31AM 42.8602 85.2437 236° Southwest  Level Estimated
07:32AM 42.8116 85.1441 236° Southwest  Level Estimated
07:33AM 42.7630 85.0447 236° Southwest  Level Estimated
07:34AM 42.7142 84.9455 236° Southwest  Level Estimated
07:35AM 42.6653 84.8464 236° Southwest  Level Estimated
07:36AM 42.6164 84.7474 236° Southwest  Level Estimated
07:37AM 42.5674 84.6486 236° Southwest  Level Estimated
07:38AM 42.5182 84.5500 236° Southwest  Level Estimated
07:39AM 42.4691 84.4515 236° Southwest  Level Estimated
07:40AM 42.4198 84.3532 236° Southwest  Level Estimated
07:41AM 42.3704 84.2550 236° Southwest  Level Estimated
07:42AM 42.3209 84.1570 236° Southwest  Level Estimated
07:43AM 42.2714 84.0592 236° Southwest  Level Estimated
07:44AM 42.2218 83.9615 236° Southwest  Level Estimated
07:45AM 42.1721 83.8639 236° Southwest  Level Estimated
07:46AM 42.1223 83.7665 235° Southwest  Level Estimated
07:47AM 42.0725 83.6693 235° Southwest  Level Estimated
07:48AM 42.0225 83.5722 235° Southwest  Level Estimated
07:49AM 41.9725 83.4752 235° Southwest  Level Estimated
07:50AM 41.9224 83.3784 235° Southwest  Level Estimated
07:51AM 41.8722 83.2818 235° Southwest  Level Estimated
07:52AM 41.8219 83.1853 235° Southwest  Level Estimated
07:53AM 41.7716 83.0890 235° Southwest  Level Estimated
07:54AM 41.7211 82.9928 235° Southwest  Level Estimated
07:55AM 41.7181 82.9869 235° Southwest  Level Estimated
07:56AM 41.7181 82.9869 143° Southeast  Level Estimated
07:57AM 41.7181 82.9869 143° Southeast  Level Estimated
07:58AM 41.7181 82.9869 143° Southeast  Level Estimated
07:59AM 41.7181 82.9869 143° Southeast  Level Estimated
08:00AM 41.7181 82.9869 143° Southeast  Level Estimated
08:01AM 41.7181 82.9869 143° Southeast  Level Estimated
08:02AM 41.7181 82.9869 143° Southeast  Level Estimated
08:03AM 41.7181 82.9869 143° Southeast  Level Estimated